Latest Weather Observations for Charles Point

IDD60901

Issued at 11:41 am CST Monday 27 June 2016 (issued every 10 minutes, with the page automatically refreshed every 10 minutes)

About weather observations | Map of Darwin area stations | Latest observations for Darwin area | Other Formats
Station Details ID: 014031 Name: CHARLES POINT Lat: -12.39 Lon: 130.63 Height: 14.0 m
Data from the previous 72 hours. | See also: Recent months for locations in Northern Territory
Date/Time
CST
Temp
°C
App
Temp
°C
Dew
Point
°C
Rel
Hum
%
Delta-T
°C
Wind Press
QNH
hPa
Press
MSL
hPa
Rain since
9am
mm
Dir  Spd
km/h
Gust
km/h
Spd
kts
Gust
kts
27/11:30am 30.5 34.4 22.9 64 5.2 ENE 7 13 4 7 1013.5 1013.4 0.2
27/11:00am 30.1 34.2 23.3 67 4.7 ENE 7 13 4 7 1013.8 1013.7 0.2
27/10:30am 29.1 32.7 22.3 66 4.6 E 7 15 4 8 1014.0 1013.9 0.0
27/10:00am 29.1 32.7 22.1 66 4.7 E 6 11 3 6 1014.0 1013.9 0.0
27/09:30am 27.9 31.8 22.6 73 3.6 E 6 9 3 5 1014.1 1014.0 0.0
27/09:00am 26.6 31.0 23.5 83 2.1 ESE 6 9 3 5 1013.9 1013.8 0.0
27/08:30am 25.3 29.4 23.0 87 1.6 SE 6 9 3 5 1013.6 1013.5 0.0
27/08:00am 22.9 26.2 21.5 92 0.9 SE 6 7 3 4 1013.2 1013.1 0.0
27/07:30am 21.8 25.1 20.8 94 0.6 SSE 4 6 2 3 1012.8 1012.7 0.0
27/07:00am 21.8 24.8 20.8 94 0.6 SSE 6 9 3 5 1012.5 1012.4 0.0
27/06:30am 21.9 24.6 20.7 93 0.8 SSE 7 9 4 5 1012.3 1012.2 0.0
27/06:00am 21.8 24.6 20.8 94 0.6 SE 7 9 4 5 1012.2 1012.1 0.0
27/05:30am 21.6 24.6 20.8 95 0.5 ESE 6 7 3 4 1012.0 1011.9 0.0
27/05:00am 21.6 24.6 20.8 95 0.5 ESE 6 6 3 3 1011.8 1011.7 0.0
27/04:30am 21.6 24.6 20.8 95 0.5 ENE 6 7 3 4 1011.7 1011.6 0.0
27/04:00am 21.8 24.8 20.8 94 0.6 NE 6 6 3 3 1011.7 1011.6 0.0
27/03:30am 21.9 26.1 20.9 94 0.7 CALM 0 0 0 0 1011.6 1011.5 0.0
27/03:00am 22.1 26.4 21.1 94 0.7 CALM 0 0 0 0 1011.7 1011.6 0.0
27/02:30am 22.2 26.1 21.2 94 0.7 NE 2 4 1 2 1011.9 1011.8 0.0
27/02:00am 22.1 25.6 21.1 94 0.7 NE 4 6 2 3 1012.1 1012.0 0.0
27/01:30am 22.2 25.8 21.2 94 0.7 NNE 4 6 2 3 1012.2 1012.1 0.0
27/01:00am 22.4 25.7 21.4 94 0.7 NNE 6 6 3 3 1012.4 1012.3 0.0
27/12:30am 22.6 27.0 21.4 93 0.8 CALM 0 0 0 0 1012.5 1012.4 0.0
27/12:00am 22.8 27.2 21.4 92 0.9 CALM 0 0 0 0 1012.5 1012.4 0.0
 
Date/Time
CST
Temp
°C
App
Temp
°C
Dew
Point
°C
Rel
Hum
%
Delta-T
°C
Wind Press
QNH
hPa
Press
MSL
hPa
Rain since
9am
mm
Dir  Spd
km/h
Gust
km/h
Spd
kts
Gust
kts
26/11:30pm 23.1 27.6 21.5 91 1.1 CALM 0 0 0 0 1012.6 1012.5 0.0
26/11:00pm 23.4 28.0 21.7 90 1.1 CALM 0 0 0 0 1012.7 1012.6 0.0
26/10:30pm 23.9 28.5 21.8 88 1.4 CALM 0 0 0 0 1012.8 1012.7 0.0
26/10:00pm 24.4 29.0 21.7 85 1.8 CALM 0 0 0 0 1012.8 1012.7 0.0
26/09:30pm 25.1 29.6 21.6 81 2.3 CALM 0 0 0 0 1012.6 1012.5 0.0
26/09:00pm 27.3 30.8 21.8 72 3.7 NNE 6 7 3 4 1012.4 1012.3 0.0
26/08:30pm 28.0 31.5 22.2 70 3.9 NNE 7 13 4 7 1012.3 1012.2 0.0
26/08:00pm 28.1 31.3 22.3 70 3.9 NNE 9 13 5 7 1011.9 1011.8 0.0
26/07:30pm 28.0 31.0 22.0 70 4.0 NNE 9 15 5 8 1011.6 1011.5 0.0
26/07:00pm 28.1 31.3 22.3 70 3.9 NNE 9 13 5 7 1011.3 1011.2 0.0
26/06:30pm 28.0 30.9 21.8 69 4.2 NNE 9 15 5 8 1011.1 1011.0 0.0
26/06:00pm 28.3 31.0 22.1 69 4.2 NNE 11 15 6 8 1010.8 1010.7 0.0
26/05:30pm 28.6 31.4 22.3 68 4.3 NNE 11 17 6 9 1010.5 1010.4 0.0
26/05:00pm 28.2 30.2 21.5 67 4.5 NNE 13 20 7 11 1010.2 1010.1 0.0
26/04:30pm 28.9 31.5 22.6 69 4.3 NNE 13 20 7 11 1010.1 1010.0 0.0
26/04:00pm 28.8 31.7 22.5 68 4.3 NNE 11 19 6 10 1010.2 1010.1 0.0
26/03:30pm 29.9 32.6 22.1 63 5.3 NNE 11 17 6 9 1010.1 1010.0 0.0
26/03:00pm 30.6 33.1 21.7 59 6.0 NNE 11 17 6 9 1010.5 1010.4 0.0
26/02:30pm 30.9 33.8 22.5 61 5.7 NNE 11 17 6 9 1010.7 1010.6 0.0
26/02:00pm 30.8 33.6 21.6 58 6.2 NE 9 15 5 8 1011.2 1011.1 0.0
26/01:30pm 30.6 33.8 21.7 59 6.0 NE 7 11 4 6 1011.7 1011.6 0.0
26/01:00pm 30.3 33.0 21.4 59 6.0 NE 9 13 5 7 1012.3 1012.2 0.0
26/12:30pm 29.8 33.0 22.3 64 5.1 NE 9 13 5 7 1012.8 1012.7 0.0
26/12:00pm 30.3 34.1 22.7 64 5.2 ENE 7 11 4 6 1013.3 1013.2 0.0
26/11:30am 30.7 34.7 23.1 64 5.2 ENE 7 11 4 6 1013.7 1013.6 0.0
26/11:00am 30.1 33.8 22.5 63 5.2 E 7 13 4 7 1014.1 1014.0 0.0
26/10:30am 28.6 32.3 22.6 70 4.1 SE 7 15 4 8 1014.3 1014.2 0.0
26/10:00am 28.0 31.5 22.9 74 3.5 SSE 9 11 5 6 1014.4 1014.3 0.0
26/09:30am 27.9 31.9 23.1 75 3.3 SSE 7 13 4 7 1014.2 1014.1 0.0
26/09:00am 26.6 30.2 23.1 81 2.4 SSE 9 15 5 8 1014.0 1013.9 0.0
26/08:30am 25.0 28.6 23.1 89 1.3 S 9 13 5 7 1013.7 1013.6 0.0
26/08:00am 24.2 27.8 23.0 93 0.8 S 9 17 5 9 1013.3 1013.2 0.0
26/07:30am 23.8 27.3 22.8 94 0.7 S 9 13 5 7 1012.9 1012.8 0.0
26/07:00am 23.7 27.1 22.7 94 0.7 S 9 13 5 7 1012.6 1012.5 0.0
26/06:30am 23.7 27.1 22.7 94 0.7 S 9 15 5 8 1012.3 1012.2 0.0
26/06:00am 23.7 26.9 22.3 92 0.9 S 9 13 5 7 1012.1 1012.0 0.0
26/05:30am 23.7 26.4 22.1 91 1.1 S 11 13 6 7 1011.8 1011.7 0.0
26/05:00am 23.8 26.8 21.9 89 1.3 S 9 13 5 7 1011.7 1011.6 0.0
26/04:30am 23.9 26.7 21.6 87 1.5 S 9 13 5 7 1011.5 1011.4 0.0
26/04:00am 24.0 26.8 21.5 86 1.7 S 9 11 5 6 1011.4 1011.3 0.0
26/03:30am 23.7 26.7 22.0 90 1.1 S 9 11 5 6 1011.5 1011.4 0.0
26/03:00am 23.7 27.2 22.1 91 1.1 S 7 9 4 5 1011.7 1011.6 0.0
26/02:30am 24.0 27.5 22.1 89 1.3 S 7 9 4 5 1011.7 1011.6 0.0
26/02:00am 24.1 27.6 22.2 89 1.3 S 7 9 4 5 1011.8 1011.7 0.0
26/01:30am 24.1 27.2 22.2 89 1.3 S 9 9 5 5 1012.0 1011.9 0.0
26/01:00am 24.1 27.6 22.2 89 1.3 S 7 9 4 5 1012.1 1012.0 0.0
26/12:30am 24.2 27.8 22.3 89 1.3 S 7 9 4 5 1012.2 1012.1 0.0
26/12:00am 24.2 27.9 22.5 90 1.1 S 7 11 4 6 1012.2 1012.1 0.0
 
Date/Time
CST
Temp
°C
App
Temp
°C
Dew
Point
°C
Rel
Hum
%
Delta-T
°C
Wind Press
QNH
hPa
Press
MSL
hPa
Rain since
9am
mm
Dir  Spd
km/h
Gust
km/h
Spd
kts
Gust
kts
25/11:30pm 24.4 28.0 23.0 92 0.9 SSE 9 11 5 6 1012.2 1012.1 0.0
25/11:00pm 24.6 29.9 23.0 91 1.1 CALM 0 0 0 0 1012.2 1012.1 0.0
25/10:30pm 25.2 30.6 23.3 89 1.3 CALM 0 0 0 0 1012.1 1012.0 0.0
25/10:00pm 25.5 30.9 23.2 87 1.6 CALM 0 0 0 0 1012.1 1012.0 0.0
25/09:30pm 26.1 31.1 23.2 84 2.0 NE 2 4 1 2 1012.1 1012.0 0.0
25/09:00pm 26.4 31.6 22.9 81 2.4 CALM 0 2 0 1 1012.0 1011.9 0.0
25/08:30pm 28.3 32.4 23.9 77 3.0 NE 9 13 5 7 1011.9 1011.8 0.0
25/08:00pm 28.4 31.5 23.5 75 3.4 NE 13 17 7 9 1011.5 1011.4 0.0
25/07:30pm 28.5 31.0 23.2 73 3.6 NE 15 20 8 11 1011.4 1011.3 0.0
25/07:00pm 28.6 32.0 23.3 73 3.6 NE 11 17 6 9 1011.1 1011.0 0.0
25/06:30pm 28.7 32.7 23.1 71 3.8 NNE 7 9 4 5 1011.0 1010.9 0.0
25/06:00pm 29.2 33.1 22.9 69 4.3 NNE 7 11 4 6 1010.8 1010.7 0.0
25/05:30pm 29.5 32.5 22.7 67 4.6 NE 11 15 6 8 1010.6 1010.5 0.0
25/05:00pm 29.7 32.8 22.9 67 4.6 NNE 11 17 6 9 1010.4 1010.3 0.0
25/04:30pm 29.8 32.7 22.5 65 5.0 NNE 11 17 6 9 1010.3 1010.2 0.0
25/04:00pm 30.7 33.7 22.6 62 5.5 NNE 11 15 6 8 1010.1 1010.0 0.0
25/03:30pm 30.3 33.6 22.5 63 5.3 NNE 9 13 5 7 1010.1 1010.0 0.0
25/03:00pm 30.3 33.6 23.2 65 4.9 NNW 11 13 6 7 1010.5 1010.4 0.0
25/02:30pm 29.9 33.4 23.6 69 4.4 NNE 11 19 6 10 1010.8 1010.7 0.0
25/02:00pm 30.7 35.1 22.8 62 5.4 NE 4 6 2 3 1011.2 1011.1 0.0
25/01:30pm 30.8 35.1 22.7 62 5.5 NE 4 6 2 3 1011.7 1011.6 0.0
25/01:00pm 30.2 34.1 22.6 63 5.2 NNE 6 9 3 5 1012.0 1011.9 0.0
25/12:30pm 30.6 34.3 22.5 62 5.5 NE 7 11 4 6 1012.7 1012.6 0.0
25/12:00pm 31.5 35.2 22.5 59 6.1 ENE 7 11 4 6 1013.0 1012.9 0.0
25/11:30am 30.4 33.4 22.0 60 5.7 ENE 9 13 5 7 1013.1 1013.0 0.0
25/11:00am 30.2 33.1 21.8 60 5.7 E 9 20 5 11 1013.3 1013.2 0.0
25/10:30am 30.2 33.5 21.8 60 5.7 ESE 7 13 4 7 1013.3 1013.2 0.0
25/10:00am 28.6 31.9 21.9 67 4.5 SSE 7 11 4 6 1013.5 1013.4 0.0
25/09:30am 27.9 30.7 20.5 64 4.9 SSE 6 11 3 6 1013.6 1013.5 0.0
25/09:00am 27.1 29.7 20.4 66 4.4 SSE 7 9 4 5 1013.3 1013.2 0.0
25/08:30am 25.5 28.3 20.5 74 3.3 SSE 6 9 3 5 1013.0 1012.9 0.0
25/08:00am 23.9 25.8 19.8 78 2.6 SSE 9 13 5 7 1012.7 1012.6 0.0
25/07:30am 22.9 24.6 19.3 80 2.3 S 9 13 5 7 1012.4 1012.3 0.0
25/07:00am 22.8 25.2 20.0 84 1.8 SSE 7 9 4 5 1012.2 1012.1 0.0
25/06:30am 22.3 25.3 20.8 91 1.0 SSE 6 7 3 4 1012.0 1011.9 0.0
25/06:00am 22.0 25.6 20.6 92 0.9 S 2 2 1 1 1011.8 1011.7 0.0
25/05:30am 21.9 25.1 20.5 92 0.9 S 4 6 2 3 1011.6 1011.5 0.0
25/05:00am 22.0 24.8 20.5 91 1.0 S 6 6 3 3 1011.4 1011.3 0.0
25/04:30am 22.3 25.2 20.6 90 1.1 S 6 7 3 4 1011.2 1011.1 0.0
25/04:00am 22.5 25.2 20.6 89 1.2 S 7 9 4 5 1011.2 1011.1 0.0
25/03:30am 22.9 25.7 20.8 88 1.4 S 7 9 4 5 1011.4 1011.3 0.0
25/03:00am 23.2 26.0 20.9 87 1.5 S 7 11 4 6 1011.8 1011.7 0.0
25/02:30am 22.9 25.9 21.2 90 1.1 S 7 9 4 5 1011.8 1011.7 0.0
25/02:00am 23.1 26.7 22.1 94 0.7 S 6 7 3 4 1011.9 1011.8 0.0
25/01:30am 23.2 26.9 22.2 94 0.7 SSW 6 7 3 4 1011.9 1011.8 0.0
25/01:00am 23.7 28.6 22.3 92 0.9 CALM 0 0 0 0 1012.0 1011.9 0.0
25/12:30am 24.1 28.8 22.7 92 0.9 SSW 2 6 1 3 1011.5 1011.4 0.0
25/12:00am 23.9 27.6 22.3 91 1.1 SSW 6 7 3 4 1011.2 1011.1 0.0
 
Date/Time
CST
Temp
°C
App
Temp
°C
Dew
Point
°C
Rel
Hum
%
Delta-T
°C
Wind Press
QNH
hPa
Press
MSL
hPa
Rain since
9am
mm
Dir  Spd
km/h
Gust
km/h
Spd
kts
Gust
kts
24/11:30pm 24.0 27.7 22.3 90 1.1 SSW 6 7 3 4 1011.2 1011.1 0.0
24/11:00pm 24.4 28.2 22.7 90 1.1 SSW 7 11 4 6 1011.2 1011.1 0.0
24/10:30pm 24.5 28.4 22.9 91 1.1 SSW 7 11 4 6 1011.3 1011.2 0.0
24/10:00pm 24.4 28.4 22.7 90 1.1 SSW 6 9 3 5 1011.2 1011.1 0.0
24/09:30pm 24.5 28.4 22.9 91 1.1 S 7 9 4 5 1011.1 1011.0 0.0
24/09:00pm 24.2 28.9 22.6 91 1.1 NE 2 4 1 2 1011.2 1011.1 0.0
24/08:30pm 24.5 28.8 22.6 89 1.3 NE 4 4 2 2 1011.0 1010.9 0.0
24/08:00pm 25.1 30.3 22.8 87 1.6 CALM 0 6 0 3 1010.9 1010.8 0.0
24/07:30pm 26.0 30.7 22.7 82 2.2 NE 2 4 1 2 1010.5 1010.4 0.0
24/07:00pm 28.0 32.2 23.4 76 3.2 NE 7 9 4 5 1010.2 1010.1 0.0
24/06:30pm 28.2 31.6 23.3 75 3.4 NE 11 15 6 8 1010.1 1010.0 0.0
24/06:00pm 28.5 31.4 23.2 73 3.6 NNE 13 17 7 9 1009.8 1009.7 0.0
24/05:30pm 29.0 32.8 23.4 72 3.9 NNE 9 15 5 8 1009.8 1009.7 0.0
24/05:00pm 29.5 32.7 23.0 68 4.4 NNE 11 17 6 9 1009.7 1009.6 0.0
24/04:30pm 29.4 32.9 22.1 65 4.9 NNE 7 11 4 6 1009.7 1009.6 0.0
24/04:00pm 29.7 32.8 21.4 61 5.6 N 7 9 4 5 1009.6 1009.5 0.0
24/03:30pm 30.4 33.5 21.5 59 6.0 NNE 7 11 4 6 1009.6 1009.5 0.0
24/03:00pm 30.5 33.6 21.0 57 6.4 NNE 6 9 3 5 1009.9 1009.8 0.0
24/02:30pm 30.7 33.1 19.7 52 7.2 NNE 6 7 3 4 1010.3 1010.2 0.0
24/02:00pm 30.2 31.8 18.3 49 7.6 NE 7 11 4 6 1010.8 1010.7 0.0
24/01:30pm 30.0 31.3 18.4 49 7.5 NE 9 15 5 8 1011.1 1011.0 0.0
24/01:00pm 30.6 32.4 18.7 49 7.7 ENE 7 11 4 6 1011.5 1011.4 0.0
24/12:30pm 29.8 31.5 18.6 51 7.2 NE 7 11 4 6 1012.0 1011.9 0.0
24/12:00pm 30.4 32.4 19.1 50 7.4 ENE 7 13 4 7 1012.4 1012.3 0.0

Latest Capital City Observations: Canberra | Sydney | Melbourne | Brisbane | Adelaide | Perth | Hobart | Darwin

Other Formats:

Comma delimited format used in spreadsheet applications
http://www.bom.gov.au/fwo/IDD60901/IDD60901.99510.axf

JavaScript Object Notation format (JSON) in row-major order
http://www.bom.gov.au/fwo/IDD60901/IDD60901.99510.json